Gamaliel, Arkansas
Current Conditions -  °F | °C
As of 5:53 AM on Thursday 23 Oct 2014 (Local Time) from KBPK Reporting Station
Clear Clear  
Wind Chill: 46°   Ceiling: Unl
Heat Index: 46°   Visibility: 9mi
Dew Point: 44°   Wind: 3mph
Humidity: 93%   Direction: 80°E
Pressure: 30.19"   Gusts: NA
Location:  36.46°N, 92.23°W
Report Text: KBPK 231053Z AUTO 08003KT 9SM CLR 08/07 A3019 RMK AO2 SLP220 T00780067
Loading
Personal Weather Stations






























Interactive Weather Map
Tropical Storm Tracking
New forecast layout! Learn more

10-Day Weather Forecast

Advertisements
Track Severe Weather on mobile